Terminal Aerodrome Forecast
Issued by NWS Wilmington, NC

Home | Current Version | Previous Version | Text Only | Print | Product List | Glossary On
Versions: 1 2 3 4 5 6 7 8 9 10 11 12 13 14 15 16 17 18 19
344
FTUS42 KILM 262320
TAFMYR
TAF
KMYR 262320Z 2700/2724 19010KT P6SM FEW050
     FM270900 19006KT P6SM FEW200
     FM271400 21012KT P6SM FEW110
      AMD LTD TO CLD VIS AND WIND 2703/2710=

USA.gov is the U.S. government's official web portal to all federal, state and local government web resources and services.